sensor_id;sensor_type;location;lat;lon;timestamp;temperature;humidity
45409;DHT22;31162;51.076;3.784;2023-04-01T00:02:19;10.90;99.90
45409;DHT22;31162;51.076;3.784;2023-04-01T00:04:45;10.90;99.90
45409;DHT22;31162;51.076;3.784;2023-04-01T00:07:11;10.90;99.90
45409;DHT22;31162;51.076;3.784;2023-04-01T00:09:36;11.00;99.90
45409;DHT22;31162;51.076;3.784;2023-04-01T00:12:03;10.90;99.90
45409;DHT22;31162;51.076;3.784;2023-04-01T00:14:29;10.90;99.90
45409;DHT22;31162;51.076;3.784;2023-04-01T00:16:55;10.90;99.90
45409;DHT22;31162;51.076;3.784;2023-04-01T00:19:21;10.90;99.90
45409;DHT22;31162;51.076;3.784;2023-04-01T00:21:46;10.90;99.90
45409;DHT22;31162;51.076;3.784;2023-04-01T00:24:13;10.90;99.90
45409;DHT22;31162;51.076;3.784;2023-04-01T00:26:39;10.90;99.90
45409;DHT22;31162;51.076;3.784;2023-04-01T00:29:06;10.90;99.90
45409;DHT22;31162;51.076;3.784;2023-04-01T00:31:32;10.90;99.90
45409;DHT22;31162;51.076;3.784;2023-04-01T00:33:57;10.90;99.90
45409;DHT22;31162;51.076;3.784;2023-04-01T00:36:24;10.80;99.90
45409;DHT22;31162;51.076;3.784;2023-04-01T00:38:50;10.80;99.90
45409;DHT22;31162;51.076;3.784;2023-04-01T00:41:17;10.90;99.90
45409;DHT22;31162;51.076;3.784;2023-04-01T00:43:45;10.90;99.90
45409;DHT22;31162;51.076;3.784;2023-04-01T00:46:11;10.90;99.90
45409;DHT22;31162;51.076;3.784;2023-04-01T00:48:42;10.90;99.90
45409;DHT22;31162;51.076;3.784;2023-04-01T00:51:19;10.90;99.90
45409;DHT22;31162;51.076;3.784;2023-04-01T00:53:48;10.90;99.90
45409;DHT22;31162;51.076;3.784;2023-04-01T00:56:30;10.90;99.90
45409;DHT22;31162;51.076;3.784;2023-04-01T00:59:03;10.80;99.90
45409;DHT22;31162;51.076;3.784;2023-04-01T01:01:31;10.90;99.90
45409;DHT22;31162;51.076;3.784;2023-04-01T01:03:58;10.90;99.90
45409;DHT22;31162;51.076;3.784;2023-04-01T01:06:42;10.90;99.90
45409;DHT22;31162;51.076;3.784;2023-04-01T01:17:38;10.70;99.90
45409;DHT22;31162;51.076;3.784;2023-04-01T01:34:22;10.70;99.90
45409;DHT22;31162;51.076;3.784;2023-04-01T01:36:53;10.70;99.90
45409;DHT22;31162;51.076;3.784;2023-04-01T01:39:20;10.70;99.90
45409;DHT22;31162;51.076;3.784;2023-04-01T01:41:47;10.80;99.90
45409;DHT22;31162;51.076;3.784;2023-04-01T01:44:16;10.70;99.90
45409;DHT22;31162;51.076;3.784;2023-04-01T01:46:42;10.70;99.90
45409;DHT22;31162;51.076;3.784;2023-04-01T01:49:10;10.60;99.90
45409;DHT22;31162;51.076;3.784;2023-04-01T01:51:37;10.60;99.90
45409;DHT22;31162;51.076;3.784;2023-04-01T01:54:04;10.60;99.90
45409;DHT22;31162;51.076;3.784;2023-04-01T01:56:30;10.70;99.90
45409;DHT22;31162;51.076;3.784;2023-04-01T01:59:03;10.60;99.90
45409;DHT22;31162;51.076;3.784;2023-04-01T02:01:32;10.60;99.90
45409;DHT22;31162;51.076;3.784;2023-04-01T02:04:00;10.70;99.90
45409;DHT22;31162;51.076;3.784;2023-04-01T02:06:28;10.70;99.90
45409;DHT22;31162;51.076;3.784;2023-04-01T02:09:05;10.60;99.90
45409;DHT22;31162;51.076;3.784;2023-04-01T02:11:41;10.70;99.90
45409;DHT22;31162;51.076;3.784;2023-04-01T02:14:31;10.70;99.90
45409;DHT22;31162;51.076;3.784;2023-04-01T02:17:24;10.70;99.90
45409;DHT22;31162;51.076;3.784;2023-04-01T02:22:23;10.70;99.90
45409;DHT22;31162;51.076;3.784;2023-04-01T02:24:53;10.60;99.90
45409;DHT22;31162;51.076;3.784;2023-04-01T02:27:20;10.60;99.90
45409;DHT22;31162;51.076;3.784;2023-04-01T02:29:46;10.60;99.90
45409;DHT22;31162;51.076;3.784;2023-04-01T02:32:13;10.50;99.90
45409;DHT22;31162;51.076;3.784;2023-04-01T02:34:40;10.60;99.90
45409;DHT22;31162;51.076;3.784;2023-04-01T02:37:05;10.50;99.90
45409;DHT22;31162;51.076;3.784;2023-04-01T02:39:31;10.50;99.90
45409;DHT22;31162;51.076;3.784;2023-04-01T02:41:57;10.60;99.90
45409;DHT22;31162;51.076;3.784;2023-04-01T02:44:23;10.60;99.90
45409;DHT22;31162;51.076;3.784;2023-04-01T02:46:48;10.50;99.90
45409;DHT22;31162;51.076;3.784;2023-04-01T02:49:14;10.50;99.90
45409;DHT22;31162;51.076;3.784;2023-04-01T02:51:40;10.60;99.90
45409;DHT22;31162;51.076;3.784;2023-04-01T02:54:05;10.70;99.90
45409;DHT22;31162;51.076;3.784;2023-04-01T02:56:31;10.70;99.90
45409;DHT22;31162;51.076;3.784;2023-04-01T02:58:57;10.60;99.90
45409;DHT22;31162;51.076;3.784;2023-04-01T03:01:23;10.50;99.90
45409;DHT22;31162;51.076;3.784;2023-04-01T03:03:49;10.50;99.90
45409;DHT22;31162;51.076;3.784;2023-04-01T03:06:16;10.50;99.90
45409;DHT22;31162;51.076;3.784;2023-04-01T03:08:42;10.40;99.90
45409;DHT22;31162;51.076;3.784;2023-04-01T03:11:09;10.40;99.90
45409;DHT22;31162;51.076;3.784;2023-04-01T03:13:35;10.50;99.90
45409;DHT22;31162;51.076;3.784;2023-04-01T03:16:01;10.50;99.90
45409;DHT22;31162;51.076;3.784;2023-04-01T03:18:27;10.50;99.90
45409;DHT22;31162;51.076;3.784;2023-04-01T03:20:53;10.60;99.90
45409;DHT22;31162;51.076;3.784;2023-04-01T03:23:18;10.70;99.90
45409;DHT22;31162;51.076;3.784;2023-04-01T03:25:46;10.60;99.90
45409;DHT22;31162;51.076;3.784;2023-04-01T03:28:12;10.60;99.90
45409;DHT22;31162;51.076;3.784;2023-04-01T03:30:39;10.70;99.90
45409;DHT22;31162;51.076;3.784;2023-04-01T03:33:05;10.70;99.90
45409;DHT22;31162;51.076;3.784;2023-04-01T03:35:31;10.70;99.90
45409;DHT22;31162;51.076;3.784;2023-04-01T03:37:56;10.70;99.90
45409;DHT22;31162;51.076;3.784;2023-04-01T03:40:22;10.70;99.90
45409;DHT22;31162;51.076;3.784;2023-04-01T03:42:48;10.70;99.90
45409;DHT22;31162;51.076;3.784;2023-04-01T03:45:13;10.60;99.90
45409;DHT22;31162;51.076;3.784;2023-04-01T03:47:39;10.60;99.90
45409;DHT22;31162;51.076;3.784;2023-04-01T03:50:06;10.60;99.90
45409;DHT22;31162;51.076;3.784;2023-04-01T03:52:33;10.60;99.90
45409;DHT22;31162;51.076;3.784;2023-04-01T03:54:58;10.60;99.90
45409;DHT22;31162;51.076;3.784;2023-04-01T03:57:24;10.60;99.90
45409;DHT22;31162;51.076;3.784;2023-04-01T03:59:50;10.60;99.90
45409;DHT22;31162;51.076;3.784;2023-04-01T04:02:15;10.50;99.90
45409;DHT22;31162;51.076;3.784;2023-04-01T04:04:41;10.50;99.90
45409;DHT22;31162;51.076;3.784;2023-04-01T04:07:08;10.50;99.90
45409;DHT22;31162;51.076;3.784;2023-04-01T04:09:33;10.40;99.90
45409;DHT22;31162;51.076;3.784;2023-04-01T04:12:00;10.50;99.90
45409;DHT22;31162;51.076;3.784;2023-04-01T04:14:26;10.50;99.90
45409;DHT22;31162;51.076;3.784;2023-04-01T04:16:51;10.50;99.90
45409;DHT22;31162;51.076;3.784;2023-04-01T04:19:17;10.50;99.90
45409;DHT22;31162;51.076;3.784;2023-04-01T04:21:43;10.50;99.90
45409;DHT22;31162;51.076;3.784;2023-04-01T04:24:09;10.40;99.90
45409;DHT22;31162;51.076;3.784;2023-04-01T04:26:35;10.50;99.90
45409;DHT22;31162;51.076;3.784;2023-04-01T04:29:01;10.40;99.90
45409;DHT22;31162;51.076;3.784;2023-04-01T04:31:27;10.50;99.90
45409;DHT22;31162;51.076;3.784;2023-04-01T04:33:54;10.40;99.90
45409;DHT22;31162;51.076;3.784;2023-04-01T04:36:20;10.40;99.90
45409;DHT22;31162;51.076;3.784;2023-04-01T04:38:46;10.40;99.90
45409;DHT22;31162;51.076;3.784;2023-04-01T04:41:12;10.40;99.90
45409;DHT22;31162;51.076;3.784;2023-04-01T04:43:40;10.50;99.90
45409;DHT22;31162;51.076;3.784;2023-04-01T04:46:09;10.50;99.90
45409;DHT22;31162;51.076;3.784;2023-04-01T04:48:36;10.50;99.90
45409;DHT22;31162;51.076;3.784;2023-04-01T04:51:02;10.40;99.90
45409;DHT22;31162;51.076;3.784;2023-04-01T04:53:28;10.30;99.90
45409;DHT22;31162;51.076;3.784;2023-04-01T04:55:54;10.40;99.90
45409;DHT22;31162;51.076;3.784;2023-04-01T04:58:20;10.50;99.90
45409;DHT22;31162;51.076;3.784;2023-04-01T05:00:46;10.50;99.90
45409;DHT22;31162;51.076;3.784;2023-04-01T05:03:12;10.50;99.90
45409;DHT22;31162;51.076;3.784;2023-04-01T05:05:39;10.40;99.90
45409;DHT22;31162;51.076;3.784;2023-04-01T05:08:05;10.40;99.90
45409;DHT22;31162;51.076;3.784;2023-04-01T05:10:31;10.40;99.90
45409;DHT22;31162;51.076;3.784;2023-04-01T05:12:57;10.50;99.90
45409;DHT22;31162;51.076;3.784;2023-04-01T05:15:23;10.50;99.90
45409;DHT22;31162;51.076;3.784;2023-04-01T05:17:49;10.50;99.90
45409;DHT22;31162;51.076;3.784;2023-04-01T05:20:16;10.40;99.90
45409;DHT22;31162;51.076;3.784;2023-04-01T05:22:42;10.50;99.90
45409;DHT22;31162;51.076;3.784;2023-04-01T05:25:08;10.40;99.90
45409;DHT22;31162;51.076;3.784;2023-04-01T05:27:34;10.40;99.90
45409;DHT22;31162;51.076;3.784;2023-04-01T05:30:00;10.40;99.90
45409;DHT22;31162;51.076;3.784;2023-04-01T05:32:26;10.40;99.90
45409;DHT22;31162;51.076;3.784;2023-04-01T05:34:52;10.40;99.90
45409;DHT22;31162;51.076;3.784;2023-04-01T05:37:18;10.40;99.90
45409;DHT22;31162;51.076;3.784;2023-04-01T05:39:44;10.30;99.90
45409;DHT22;31162;51.076;3.784;2023-04-01T05:42:10;10.30;99.90
45409;DHT22;31162;51.076;3.784;2023-04-01T05:44:36;10.20;99.90
45409;DHT22;31162;51.076;3.784;2023-04-01T05:47:03;10.20;99.90
45409;DHT22;31162;51.076;3.784;2023-04-01T05:49:29;10.30;99.90
45409;DHT22;31162;51.076;3.784;2023-04-01T05:51:55;10.40;99.90
45409;DHT22;31162;51.076;3.784;2023-04-01T05:54:21;10.40;99.90
45409;DHT22;31162;51.076;3.784;2023-04-01T05:56:47;10.40;99.90
45409;DHT22;31162;51.076;3.784;2023-04-01T05:59:13;10.40;99.90
45409;DHT22;31162;51.076;3.784;2023-04-01T06:01:38;10.20;99.90
45409;DHT22;31162;51.076;3.784;2023-04-01T06:04:04;10.30;99.90
45409;DHT22;31162;51.076;3.784;2023-04-01T06:06:31;10.40;99.90
45409;DHT22;31162;51.076;3.784;2023-04-01T06:09:07;10.50;99.90
45409;DHT22;31162;51.076;3.784;2023-04-01T06:14:14;10.40;99.90
45409;DHT22;31162;51.076;3.784;2023-04-01T06:30:37;10.40;99.90
45409;DHT22;31162;51.076;3.784;2023-04-01T06:43:46;10.50;99.90
45409;DHT22;31162;51.076;3.784;2023-04-01T06:54:38;10.80;99.90
45409;DHT22;31162;51.076;3.784;2023-04-01T07:00:04;10.80;99.90
45409;DHT22;31162;51.076;3.784;2023-04-01T07:02:41;10.80;99.90
45409;DHT22;31162;51.076;3.784;2023-04-01T07:05:11;10.60;99.90
45409;DHT22;31162;51.076;3.784;2023-04-01T07:07:46;10.60;99.90
45409;DHT22;31162;51.076;3.784;2023-04-01T07:10:25;10.60;99.90
45409;DHT22;31162;51.076;3.784;2023-04-01T07:12:55;10.60;99.90
45409;DHT22;31162;51.076;3.784;2023-04-01T07:16:35;10.70;99.90
45409;DHT22;31162;51.076;3.784;2023-04-01T07:18:55;10.80;99.90
45409;DHT22;31162;51.076;3.784;2023-04-01T07:21:30;10.90;99.90
45409;DHT22;31162;51.076;3.784;2023-04-01T07:24:05;11.00;99.90
45409;DHT22;31162;51.076;3.784;2023-04-01T07:26:31;11.10;99.90
45409;DHT22;31162;51.076;3.784;2023-04-01T07:28:57;11.20;99.90
45409;DHT22;31162;51.076;3.784;2023-04-01T07:37:00;11.30;99.90
45409;DHT22;31162;51.076;3.784;2023-04-01T07:39:53;11.40;99.90
45409;DHT22;31162;51.076;3.784;2023-04-01T07:45:46;11.40;99.90
45409;DHT22;31162;51.076;3.784;2023-04-01T07:48:19;11.50;99.90
45409;DHT22;31162;51.076;3.784;2023-04-01T07:51:16;11.50;99.90
45409;DHT22;31162;51.076;3.784;2023-04-01T07:53:51;11.40;99.90
45409;DHT22;31162;51.076;3.784;2023-04-01T07:59:15;11.50;99.90
45409;DHT22;31162;51.076;3.784;2023-04-01T08:01:52;11.30;99.90
45409;DHT22;31162;51.076;3.784;2023-04-01T08:20:39;11.50;99.90
45409;DHT22;31162;51.076;3.784;2023-04-01T08:28:48;11.40;99.90
45409;DHT22;31162;51.076;3.784;2023-04-01T08:31:31;11.40;99.90
45409;DHT22;31162;51.076;3.784;2023-04-01T08:33:59;11.50;99.90
45409;DHT22;31162;51.076;3.784;2023-04-01T08:36:32;11.40;99.90
45409;DHT22;31162;51.076;3.784;2023-04-01T08:39:02;11.40;99.90
45409;DHT22;31162;51.076;3.784;2023-04-01T08:52:18;11.70;99.90
45409;DHT22;31162;51.076;3.784;2023-04-01T09:01:34;12.00;99.90
45409;DHT22;31162;51.076;3.784;2023-04-01T09:06:40;12.20;99.90
45409;DHT22;31162;51.076;3.784;2023-04-01T09:09:47;12.40;99.90
45409;DHT22;31162;51.076;3.784;2023-04-01T09:15:12;13.00;99.90
45409;DHT22;31162;51.076;3.784;2023-04-01T09:48:09;12.50;99.90
45409;DHT22;31162;51.076;3.784;2023-04-01T09:51:05;12.70;99.90
45409;DHT22;31162;51.076;3.784;2023-04-01T09:59:49;12.60;99.90
45409;DHT22;31162;51.076;3.784;2023-04-01T10:05:26;12.30;99.90
45409;DHT22;31162;51.076;3.784;2023-04-01T10:22:34;12.70;99.90
45409;DHT22;31162;51.076;3.784;2023-04-01T10:25:10;12.60;99.90
45409;DHT22;31162;51.076;3.784;2023-04-01T10:31:08;12.40;99.90
45409;DHT22;31162;51.076;3.784;2023-04-01T10:36:55;12.40;99.90
45409;DHT22;31162;51.076;3.784;2023-04-01T10:39:29;12.50;99.90
45409;DHT22;31162;51.076;3.784;2023-04-01T11:15:06;13.00;99.90
45409;DHT22;31162;51.076;3.784;2023-04-01T11:40:30;13.60;99.90
45409;DHT22;31162;51.076;3.784;2023-04-01T11:43:12;13.40;99.90
45409;DHT22;31162;51.076;3.784;2023-04-01T11:45:49;13.40;99.90
45409;DHT22;31162;51.076;3.784;2023-04-01T11:48:36;13.40;99.90
45409;DHT22;31162;51.076;3.784;2023-04-01T12:08:39;13.20;99.90
45409;DHT22;31162;51.076;3.784;2023-04-01T12:17:18;13.40;99.90
45409;DHT22;31162;51.076;3.784;2023-04-01T12:20:20;13.60;99.90
45409;DHT22;31162;51.076;3.784;2023-04-01T12:23:22;13.60;99.90
45409;DHT22;31162;51.076;3.784;2023-04-01T12:31:27;13.30;99.90
45409;DHT22;31162;51.076;3.784;2023-04-01T12:50:30;12.70;99.90
45409;DHT22;31162;51.076;3.784;2023-04-01T12:53:11;12.70;99.90
45409;DHT22;31162;51.076;3.784;2023-04-01T12:55:43;12.70;99.90
45409;DHT22;31162;51.076;3.784;2023-04-01T13:04:39;13.00;99.90
45409;DHT22;31162;51.076;3.784;2023-04-01T13:15:43;13.10;99.90
45409;DHT22;31162;51.076;3.784;2023-04-01T13:23:59;12.70;99.90
45409;DHT22;31162;51.076;3.784;2023-04-01T13:29:31;12.90;99.90
45409;DHT22;31162;51.076;3.784;2023-04-01T13:37:32;12.80;99.90
45409;DHT22;31162;51.076;3.784;2023-04-01T13:40:19;12.80;99.90
45409;DHT22;31162;51.076;3.784;2023-04-01T13:43:07;12.70;99.90
45409;DHT22;31162;51.076;3.784;2023-04-01T13:54:20;12.70;99.90
45409;DHT22;31162;51.076;3.784;2023-04-01T14:11:30;12.90;99.90
45409;DHT22;31162;51.076;3.784;2023-04-01T14:16:55;13.10;99.90
45409;DHT22;31162;51.076;3.784;2023-04-01T14:22:33;13.10;99.90
45409;DHT22;31162;51.076;3.784;2023-04-01T14:50:21;12.80;99.90
45409;DHT22;31162;51.076;3.784;2023-04-01T14:55:46;12.80;99.90
45409;DHT22;31162;51.076;3.784;2023-04-01T14:58:15;12.90;99.90
45409;DHT22;31162;51.076;3.784;2023-04-01T15:00:50;12.90;99.90
45409;DHT22;31162;51.076;3.784;2023-04-01T15:31:50;12.40;99.90
45409;DHT22;31162;51.076;3.784;2023-04-01T15:34:30;12.20;99.90
45409;DHT22;31162;51.076;3.784;2023-04-01T15:37:15;12.20;99.90
45409;DHT22;31162;51.076;3.784;2023-04-01T15:45:23;12.20;99.90
45409;DHT22;31162;51.076;3.784;2023-04-01T15:51:41;12.10;99.90
45409;DHT22;31162;51.076;3.784;2023-04-01T15:54:12;12.10;99.90
45409;DHT22;31162;51.076;3.784;2023-04-01T16:02:43;12.00;99.90
45409;DHT22;31162;51.076;3.784;2023-04-01T16:05:27;11.90;99.90
45409;DHT22;31162;51.076;3.784;2023-04-01T16:08:14;11.90;99.90
45409;DHT22;31162;51.076;3.784;2023-04-01T16:21:57;11.70;99.90
45409;DHT22;31162;51.076;3.784;2023-04-01T16:38:18;11.70;99.90
45409;DHT22;31162;51.076;3.784;2023-04-01T16:43:45;11.50;99.90
45409;DHT22;31162;51.076;3.784;2023-04-01T16:46:41;11.40;99.90
45409;DHT22;31162;51.076;3.784;2023-04-01T16:51:54;11.30;99.90
45409;DHT22;31162;51.076;3.784;2023-04-01T16:54:44;11.30;99.90
45409;DHT22;31162;51.076;3.784;2023-04-01T16:57:16;11.20;99.90
45409;DHT22;31162;51.076;3.784;2023-04-01T17:00:11;11.20;99.90
45409;DHT22;31162;51.076;3.784;2023-04-01T17:02:49;11.10;99.90
45409;DHT22;31162;51.076;3.784;2023-04-01T17:05:17;11.10;99.90
45409;DHT22;31162;51.076;3.784;2023-04-01T17:08:10;11.00;99.90
45409;DHT22;31162;51.076;3.784;2023-04-01T17:13:39;11.00;99.90
45409;DHT22;31162;51.076;3.784;2023-04-01T17:22:35;10.50;99.90
45409;DHT22;31162;51.076;3.784;2023-04-01T17:31:14;9.80;99.90
45409;DHT22;31162;51.076;3.784;2023-04-01T17:36:50;9.80;99.90
45409;DHT22;31162;51.076;3.784;2023-04-01T17:47:49;10.00;99.90
45409;DHT22;31162;51.076;3.784;2023-04-01T17:58:19;10.10;99.90
45409;DHT22;31162;51.076;3.784;2023-04-01T18:00:50;10.00;99.90
45409;DHT22;31162;51.076;3.784;2023-04-01T18:09:20;10.00;99.90
45409;DHT22;31162;51.076;3.784;2023-04-01T18:14:32;9.90;99.90
45409;DHT22;31162;51.076;3.784;2023-04-01T18:25:41;9.90;99.90
45409;DHT22;31162;51.076;3.784;2023-04-01T18:33:44;10.00;99.90
45409;DHT22;31162;51.076;3.784;2023-04-01T18:36:32;10.00;99.90
45409;DHT22;31162;51.076;3.784;2023-04-01T18:39:04;10.00;99.90
45409;DHT22;31162;51.076;3.784;2023-04-01T18:41:43;9.80;99.90
45409;DHT22;31162;51.076;3.784;2023-04-01T18:52:40;9.70;99.90
45409;DHT22;31162;51.076;3.784;2023-04-01T19:01:11;9.70;99.90
45409;DHT22;31162;51.076;3.784;2023-04-01T19:06:35;9.60;99.90
45409;DHT22;31162;51.076;3.784;2023-04-01T19:09:26;9.60;99.90
45409;DHT22;31162;51.076;3.784;2023-04-01T19:15:20;9.60;99.90
45409;DHT22;31162;51.076;3.784;2023-04-01T19:20:43;9.50;99.90
45409;DHT22;31162;51.076;3.784;2023-04-01T19:25:51;9.50;99.90
45409;DHT22;31162;51.076;3.784;2023-04-01T19:28:52;9.50;99.90
45409;DHT22;31162;51.076;3.784;2023-04-01T19:34:30;9.50;99.90
45409;DHT22;31162;51.076;3.784;2023-04-01T19:53:43;9.50;99.90
45409;DHT22;31162;51.076;3.784;2023-04-01T19:56:21;9.50;99.90
45409;DHT22;31162;51.076;3.784;2023-04-01T19:59:21;9.60;99.90
45409;DHT22;31162;51.076;3.784;2023-04-01T20:04:49;9.60;99.90
45409;DHT22;31162;51.076;3.784;2023-04-01T20:07:32;9.50;99.90
45409;DHT22;31162;51.076;3.784;2023-04-01T20:10:30;9.50;99.90
45409;DHT22;31162;51.076;3.784;2023-04-01T20:15:45;9.60;99.90
45409;DHT22;31162;51.076;3.784;2023-04-01T20:21:16;9.60;99.90
45409;DHT22;31162;51.076;3.784;2023-04-01T20:23:56;9.60;99.90
45409;DHT22;31162;51.076;3.784;2023-04-01T20:26:40;9.70;99.90
45409;DHT22;31162;51.076;3.784;2023-04-01T20:32:04;9.60;99.90
45409;DHT22;31162;51.076;3.784;2023-04-01T20:34:46;9.50;99.90
45409;DHT22;31162;51.076;3.784;2023-04-01T20:37:40;9.50;99.90
45409;DHT22;31162;51.076;3.784;2023-04-01T20:45:51;9.40;99.90
45409;DHT22;31162;51.076;3.784;2023-04-01T20:51:06;9.40;99.90
45409;DHT22;31162;51.076;3.784;2023-04-01T21:04:23;9.40;99.90
45409;DHT22;31162;51.076;3.784;2023-04-01T21:07:05;9.50;99.90
45409;DHT22;31162;51.076;3.784;2023-04-01T21:16:05;9.50;99.90
45409;DHT22;31162;51.076;3.784;2023-04-01T21:21:59;9.40;99.90
45409;DHT22;31162;51.076;3.784;2023-04-01T21:24:42;9.40;99.90
45409;DHT22;31162;51.076;3.784;2023-04-01T21:33:00;9.40;99.90
45409;DHT22;31162;51.076;3.784;2023-04-01T21:35:37;9.40;99.90
45409;DHT22;31162;51.076;3.784;2023-04-01T21:41:08;9.40;99.90
45409;DHT22;31162;51.076;3.784;2023-04-01T21:43:59;9.50;99.90
45409;DHT22;31162;51.076;3.784;2023-04-01T21:46:50;9.40;99.90
45409;DHT22;31162;51.076;3.784;2023-04-01T21:52:27;9.30;99.90
45409;DHT22;31162;51.076;3.784;2023-04-01T21:58:06;9.30;99.90
45409;DHT22;31162;51.076;3.784;2023-04-01T22:03:11;9.30;99.90
45409;DHT22;31162;51.076;3.784;2023-04-01T22:08:45;9.20;99.90
45409;DHT22;31162;51.076;3.784;2023-04-01T22:17:25;9.20;99.90
45409;DHT22;31162;51.076;3.784;2023-04-01T22:20:25;9.30;99.90
45409;DHT22;31162;51.076;3.784;2023-04-01T22:25:42;9.20;99.90
45409;DHT22;31162;51.076;3.784;2023-04-01T22:28:21;9.10;99.90
45409;DHT22;31162;51.076;3.784;2023-04-01T22:30:52;9.10;99.90
45409;DHT22;31162;51.076;3.784;2023-04-01T22:36:02;9.10;99.90
45409;DHT22;31162;51.076;3.784;2023-04-01T22:41:23;9.10;99.90
45409;DHT22;31162;51.076;3.784;2023-04-01T22:43:47;9.20;99.90
45409;DHT22;31162;51.076;3.784;2023-04-01T22:51:50;9.10;99.90
45409;DHT22;31162;51.076;3.784;2023-04-01T22:54:29;9.10;99.90
45409;DHT22;31162;51.076;3.784;2023-04-01T22:59:39;9.10;99.90
45409;DHT22;31162;51.076;3.784;2023-04-01T23:02:20;9.10;99.90
45409;DHT22;31162;51.076;3.784;2023-04-01T23:04:54;9.20;99.90
45409;DHT22;31162;51.076;3.784;2023-04-01T23:07:41;9.20;99.90
45409;DHT22;31162;51.076;3.784;2023-04-01T23:10:31;9.10;99.90
45409;DHT22;31162;51.076;3.784;2023-04-01T23:13:15;9.10;99.90
45409;DHT22;31162;51.076;3.784;2023-04-01T23:15:42;9.20;99.90
45409;DHT22;31162;51.076;3.784;2023-04-01T23:18:33;9.10;99.90
45409;DHT22;31162;51.076;3.784;2023-04-01T23:26:55;9.10;99.90
45409;DHT22;31162;51.076;3.784;2023-04-01T23:29:23;9.20;99.90
45409;DHT22;31162;51.076;3.784;2023-04-01T23:32:15;9.20;99.90
45409;DHT22;31162;51.076;3.784;2023-04-01T23:34:50;9.10;99.90
45409;DHT22;31162;51.076;3.784;2023-04-01T23:37:17;9.20;99.90
45409;DHT22;31162;51.076;3.784;2023-04-01T23:39:57;9.10;99.90
45409;DHT22;31162;51.076;3.784;2023-04-01T23:42:38;9.20;99.90
45409;DHT22;31162;51.076;3.784;2023-04-01T23:45:13;9.20;99.90
45409;DHT22;31162;51.076;3.784;2023-04-01T23:47:40;9.30;99.90
45409;DHT22;31162;51.076;3.784;2023-04-01T23:50:22;9.20;99.90
45409;DHT22;31162;51.076;3.784;2023-04-01T23:52:53;9.20;99.90
45409;DHT22;31162;51.076;3.784;2023-04-01T23:55:27;9.10;99.90
